sensor_id;sensor_type;location;lat;lon;timestamp;P1;durP1;ratioP1;P2;durP2;ratioP2
57319;SDS011;43158;51.026;18.190;2022-11-18T00:00:52;18.10;;;14.30;;
57319;SDS011;43158;51.026;18.190;2022-11-18T00:03:18;13.00;;;11.70;;
57319;SDS011;43158;51.026;18.190;2022-11-18T00:05:54;19.80;;;15.80;;
57319;SDS011;43158;51.026;18.190;2022-11-18T00:08:21;14.70;;;13.10;;
57319;SDS011;43158;51.026;18.190;2022-11-18T00:10:47;13.10;;;11.60;;
57319;SDS011;43158;51.026;18.190;2022-11-18T00:13:14;18.80;;;14.40;;
57319;SDS011;43158;51.026;18.190;2022-11-18T00:16:02;17.60;;;15.30;;
57319;SDS011;43158;51.026;18.190;2022-11-18T00:18:32;16.70;;;14.00;;
57319;SDS011;43158;51.026;18.190;2022-11-18T00:20:59;11.20;;;10.10;;
57319;SDS011;43158;51.026;18.190;2022-11-18T00:23:30;14.40;;;13.00;;
57319;SDS011;43158;51.026;18.190;2022-11-18T00:26:07;12.60;;;11.30;;
57319;SDS011;43158;51.026;18.190;2022-11-18T00:28:34;15.70;;;12.70;;
57319;SDS011;43158;51.026;18.190;2022-11-18T00:31:05;12.50;;;11.20;;
57319;SDS011;43158;51.026;18.190;2022-11-18T00:33:33;13.20;;;11.80;;
57319;SDS011;43158;51.026;18.190;2022-11-18T00:36:02;11.20;;;10.10;;
57319;SDS011;43158;51.026;18.190;2022-11-18T00:38:28;11.60;;;10.40;;
57319;SDS011;43158;51.026;18.190;2022-11-18T00:41:02;12.00;;;10.80;;
57319;SDS011;43158;51.026;18.190;2022-11-18T00:43:29;24.00;;;18.40;;
57319;SDS011;43158;51.026;18.190;2022-11-18T00:45:56;15.20;;;13.60;;
57319;SDS011;43158;51.026;18.190;2022-11-18T00:48:22;13.10;;;11.40;;
57319;SDS011;43158;51.026;18.190;2022-11-18T00:50:48;11.50;;;10.30;;
57319;SDS011;43158;51.026;18.190;2022-11-18T00:53:19;12.30;;;11.10;;
57319;SDS011;43158;51.026;18.190;2022-11-18T00:55:45;11.10;;;10.10;;
57319;SDS011;43158;51.026;18.190;2022-11-18T00:58:12;10.50;;;9.60;;
57319;SDS011;43158;51.026;18.190;2022-11-18T01:00:41;12.10;;;10.90;;
57319;SDS011;43158;51.026;18.190;2022-11-18T01:03:08;13.80;;;12.50;;
57319;SDS011;43158;51.026;18.190;2022-11-18T01:05:35;12.20;;;10.90;;
57319;SDS011;43158;51.026;18.190;2022-11-18T01:08:03;13.80;;;12.30;;
57319;SDS011;43158;51.026;18.190;2022-11-18T01:10:29;21.80;;;17.40;;
57319;SDS011;43158;51.026;18.190;2022-11-18T01:12:56;11.40;;;10.30;;
57319;SDS011;43158;51.026;18.190;2022-11-18T01:15:41;15.00;;;12.70;;
57319;SDS011;43158;51.026;18.190;2022-11-18T01:18:08;14.50;;;10.60;;
57319;SDS011;43158;51.026;18.190;2022-11-18T01:20:35;30.20;;;20.00;;
57319;SDS011;43158;51.026;18.190;2022-11-18T01:23:01;14.30;;;12.00;;
57319;SDS011;43158;51.026;18.190;2022-11-18T01:25:28;13.80;;;11.20;;
57319;SDS011;43158;51.026;18.190;2022-11-18T01:27:54;11.50;;;10.30;;
57319;SDS011;43158;51.026;18.190;2022-11-18T01:30:21;12.00;;;10.90;;
57319;SDS011;43158;51.026;18.190;2022-11-18T01:32:47;12.70;;;10.90;;
57319;SDS011;43158;51.026;18.190;2022-11-18T01:35:14;11.30;;;10.10;;
57319;SDS011;43158;51.026;18.190;2022-11-18T01:37:40;10.70;;;9.50;;
57319;SDS011;43158;51.026;18.190;2022-11-18T01:40:07;13.30;;;11.10;;
57319;SDS011;43158;51.026;18.190;2022-11-18T01:42:34;11.60;;;10.40;;
57319;SDS011;43158;51.026;18.190;2022-11-18T01:45:05;10.70;;;9.80;;
57319;SDS011;43158;51.026;18.190;2022-11-18T01:47:35;9.70;;;8.80;;
57319;SDS011;43158;51.026;18.190;2022-11-18T01:50:06;11.20;;;10.00;;
57319;SDS011;43158;51.026;18.190;2022-11-18T01:52:33;9.80;;;8.80;;
57319;SDS011;43158;51.026;18.190;2022-11-18T01:55:03;11.10;;;10.00;;
57319;SDS011;43158;51.026;18.190;2022-11-18T01:57:37;10.10;;;9.10;;
57319;SDS011;43158;51.026;18.190;2022-11-18T02:00:04;12.10;;;11.00;;
57319;SDS011;43158;51.026;18.190;2022-11-18T02:02:32;11.60;;;10.30;;
57319;SDS011;43158;51.026;18.190;2022-11-18T02:04:59;10.00;;;9.00;;
57319;SDS011;43158;51.026;18.190;2022-11-18T02:07:25;11.10;;;10.20;;
57319;SDS011;43158;51.026;18.190;2022-11-18T02:09:52;11.40;;;10.30;;
57319;SDS011;43158;51.026;18.190;2022-11-18T02:12:18;11.90;;;10.60;;
57319;SDS011;43158;51.026;18.190;2022-11-18T02:14:45;10.00;;;9.10;;
57319;SDS011;43158;51.026;18.190;2022-11-18T02:20:27;11.10;;;9.90;;
57319;SDS011;43158;51.026;18.190;2022-11-18T02:23:03;13.20;;;11.90;;
57319;SDS011;43158;51.026;18.190;2022-11-18T02:31:31;23.50;;;18.20;;
57319;SDS011;43158;51.026;18.190;2022-11-18T02:34:37;22.40;;;16.40;;
57319;SDS011;43158;51.026;18.190;2022-11-18T02:39:58;15.00;;;12.10;;
57319;SDS011;43158;51.026;18.190;2022-11-18T02:42:28;49.50;;;27.20;;
57319;SDS011;43158;51.026;18.190;2022-11-18T02:44:57;29.50;;;21.30;;
57319;SDS011;43158;51.026;18.190;2022-11-18T02:47:26;20.40;;;15.00;;
57319;SDS011;43158;51.026;18.190;2022-11-18T02:49:54;17.00;;;14.30;;
57319;SDS011;43158;51.026;18.190;2022-11-18T02:52:23;17.60;;;14.50;;
57319;SDS011;43158;51.026;18.190;2022-11-18T02:54:51;16.20;;;14.50;;
57319;SDS011;43158;51.026;18.190;2022-11-18T02:57:18;13.00;;;11.50;;
57319;SDS011;43158;51.026;18.190;2022-11-18T02:59:45;14.20;;;12.80;;
57319;SDS011;43158;51.026;18.190;2022-11-18T03:02:15;17.20;;;14.90;;
57319;SDS011;43158;51.026;18.190;2022-11-18T03:04:43;18.60;;;16.80;;
57319;SDS011;43158;51.026;18.190;2022-11-18T03:07:33;20.00;;;18.00;;
57319;SDS011;43158;51.026;18.190;2022-11-18T03:09:58;18.70;;;15.70;;
57319;SDS011;43158;51.026;18.190;2022-11-18T03:12:36;21.00;;;18.60;;
57319;SDS011;43158;51.026;18.190;2022-11-18T03:15:22;18.40;;;14.90;;
57319;SDS011;43158;51.026;18.190;2022-11-18T03:20:46;18.30;;;16.50;;
57319;SDS011;43158;51.026;18.190;2022-11-18T03:26:11;14.30;;;12.90;;
57319;SDS011;43158;51.026;18.190;2022-11-18T03:28:45;13.90;;;11.90;;
57319;SDS011;43158;51.026;18.190;2022-11-18T03:31:22;12.50;;;11.30;;
57319;SDS011;43158;51.026;18.190;2022-11-18T03:33:52;14.10;;;12.70;;
57319;SDS011;43158;51.026;18.190;2022-11-18T03:36:23;17.20;;;14.50;;
57319;SDS011;43158;51.026;18.190;2022-11-18T03:38:53;14.90;;;13.40;;
57319;SDS011;43158;51.026;18.190;2022-11-18T03:41:23;17.20;;;15.50;;
57319;SDS011;43158;51.026;18.190;2022-11-18T03:43:55;16.60;;;14.90;;
57319;SDS011;43158;51.026;18.190;2022-11-18T03:46:32;15.50;;;12.90;;
57319;SDS011;43158;51.026;18.190;2022-11-18T03:49:07;17.30;;;13.30;;
57319;SDS011;43158;51.026;18.190;2022-11-18T03:51:44;15.20;;;13.50;;
57319;SDS011;43158;51.026;18.190;2022-11-18T03:54:15;17.10;;;15.30;;
57319;SDS011;43158;51.026;18.190;2022-11-18T03:57:05;20.50;;;17.60;;
57319;SDS011;43158;51.026;18.190;2022-11-18T03:59:37;16.40;;;14.70;;
57319;SDS011;43158;51.026;18.190;2022-11-18T04:02:10;16.70;;;14.90;;
57319;SDS011;43158;51.026;18.190;2022-11-18T04:04:40;17.30;;;15.20;;
57319;SDS011;43158;51.026;18.190;2022-11-18T04:07:17;18.40;;;16.30;;
57319;SDS011;43158;51.026;18.190;2022-11-18T04:09:56;16.50;;;14.50;;
57319;SDS011;43158;51.026;18.190;2022-11-18T04:12:24;18.70;;;16.70;;
57319;SDS011;43158;51.026;18.190;2022-11-18T04:14:52;19.10;;;16.70;;
57319;SDS011;43158;51.026;18.190;2022-11-18T04:17:20;21.50;;;19.10;;
57319;SDS011;43158;51.026;18.190;2022-11-18T04:19:48;18.00;;;16.00;;
57319;SDS011;43158;51.026;18.190;2022-11-18T04:22:14;16.80;;;15.00;;
57319;SDS011;43158;51.026;18.190;2022-11-18T04:24:44;22.30;;;15.50;;
57319;SDS011;43158;51.026;18.190;2022-11-18T04:27:10;19.10;;;16.10;;
57319;SDS011;43158;51.026;18.190;2022-11-18T04:29:36;19.70;;;16.10;;
57319;SDS011;43158;51.026;18.190;2022-11-18T04:32:02;21.70;;;18.00;;
57319;SDS011;43158;51.026;18.190;2022-11-18T04:34:29;20.60;;;17.60;;
57319;SDS011;43158;51.026;18.190;2022-11-18T04:36:56;24.20;;;18.10;;
57319;SDS011;43158;51.026;18.190;2022-11-18T04:39:22;18.00;;;15.20;;
57319;SDS011;43158;51.026;18.190;2022-11-18T04:41:48;16.30;;;14.60;;
57319;SDS011;43158;51.026;18.190;2022-11-18T04:44:20;18.30;;;14.80;;
57319;SDS011;43158;51.026;18.190;2022-11-18T04:46:50;21.30;;;18.10;;
57319;SDS011;43158;51.026;18.190;2022-11-18T04:49:17;20.10;;;15.80;;
57319;SDS011;43158;51.026;18.190;2022-11-18T04:51:43;19.20;;;17.20;;
57319;SDS011;43158;51.026;18.190;2022-11-18T04:54:10;18.60;;;16.30;;
57319;SDS011;43158;51.026;18.190;2022-11-18T04:56:37;22.50;;;18.60;;
57319;SDS011;43158;51.026;18.190;2022-11-18T04:59:04;25.70;;;18.10;;
57319;SDS011;43158;51.026;18.190;2022-11-18T05:01:30;18.50;;;16.00;;
57319;SDS011;43158;51.026;18.190;2022-11-18T05:03:58;20.30;;;17.00;;
57319;SDS011;43158;51.026;18.190;2022-11-18T05:06:25;20.80;;;17.50;;
57319;SDS011;43158;51.026;18.190;2022-11-18T05:08:52;19.70;;;17.10;;
57319;SDS011;43158;51.026;18.190;2022-11-18T05:11:18;19.50;;;17.40;;
57319;SDS011;43158;51.026;18.190;2022-11-18T05:14:03;20.40;;;16.50;;
57319;SDS011;43158;51.026;18.190;2022-11-18T05:16:29;22.70;;;19.10;;
57319;SDS011;43158;51.026;18.190;2022-11-18T05:18:54;22.80;;;16.50;;
57319;SDS011;43158;51.026;18.190;2022-11-18T05:21:20;21.90;;;16.90;;
57319;SDS011;43158;51.026;18.190;2022-11-18T05:23:46;22.20;;;19.00;;
57319;SDS011;43158;51.026;18.190;2022-11-18T05:26:13;21.90;;;19.50;;
57319;SDS011;43158;51.026;18.190;2022-11-18T05:28:38;22.20;;;19.60;;
57319;SDS011;43158;51.026;18.190;2022-11-18T05:31:05;21.00;;;18.70;;
57319;SDS011;43158;51.026;18.190;2022-11-18T05:33:35;20.80;;;18.00;;
57319;SDS011;43158;51.026;18.190;2022-11-18T05:36:06;20.50;;;18.00;;
57319;SDS011;43158;51.026;18.190;2022-11-18T05:38:34;23.50;;;18.10;;
57319;SDS011;43158;51.026;18.190;2022-11-18T05:41:01;21.20;;;18.70;;
57319;SDS011;43158;51.026;18.190;2022-11-18T05:43:27;26.20;;;21.50;;
57319;SDS011;43158;51.026;18.190;2022-11-18T05:45:54;22.20;;;19.90;;
57319;SDS011;43158;51.026;18.190;2022-11-18T05:48:20;22.10;;;19.90;;
57319;SDS011;43158;51.026;18.190;2022-11-18T05:50:48;20.80;;;17.70;;
57319;SDS011;43158;51.026;18.190;2022-11-18T05:53:16;22.40;;;19.30;;
57319;SDS011;43158;51.026;18.190;2022-11-18T05:58:30;22.00;;;19.50;;
57319;SDS011;43158;51.026;18.190;2022-11-18T06:00:57;21.80;;;19.60;;
57319;SDS011;43158;51.026;18.190;2022-11-18T06:03:28;26.40;;;23.70;;
57319;SDS011;43158;51.026;18.190;2022-11-18T06:06:06;24.30;;;21.70;;
57319;SDS011;43158;51.026;18.190;2022-11-18T06:08:35;23.40;;;20.40;;
57319;SDS011;43158;51.026;18.190;2022-11-18T06:11:05;27.60;;;24.60;;
57319;SDS011;43158;51.026;18.190;2022-11-18T06:13:34;23.10;;;20.30;;
57319;SDS011;43158;51.026;18.190;2022-11-18T06:18:29;38.50;;;29.10;;
57319;SDS011;43158;51.026;18.190;2022-11-18T06:20:59;23.10;;;20.60;;
57319;SDS011;43158;51.026;18.190;2022-11-18T06:23:28;24.80;;;21.20;;
57319;SDS011;43158;51.026;18.190;2022-11-18T06:25:55;23.80;;;20.10;;
57319;SDS011;43158;51.026;18.190;2022-11-18T06:28:21;27.80;;;23.10;;
57319;SDS011;43158;51.026;18.190;2022-11-18T06:30:48;22.20;;;18.90;;
57319;SDS011;43158;51.026;18.190;2022-11-18T06:33:14;25.10;;;20.20;;
57319;SDS011;43158;51.026;18.190;2022-11-18T06:35:43;27.10;;;24.00;;
57319;SDS011;43158;51.026;18.190;2022-11-18T06:38:09;28.50;;;23.70;;
57319;SDS011;43158;51.026;18.190;2022-11-18T06:40:35;25.00;;;20.40;;
57319;SDS011;43158;51.026;18.190;2022-11-18T06:43:06;26.10;;;21.50;;
57319;SDS011;43158;51.026;18.190;2022-11-18T06:45:51;24.40;;;20.00;;
57319;SDS011;43158;51.026;18.190;2022-11-18T06:48:35;24.80;;;20.70;;
57319;SDS011;43158;51.026;18.190;2022-11-18T06:51:05;27.90;;;22.70;;
57319;SDS011;43158;51.026;18.190;2022-11-18T06:53:34;27.40;;;22.50;;
57319;SDS011;43158;51.026;18.190;2022-11-18T06:56:02;27.70;;;22.30;;
57319;SDS011;43158;51.026;18.190;2022-11-18T06:58:29;28.70;;;21.40;;
57319;SDS011;43158;51.026;18.190;2022-11-18T07:00:55;28.10;;;22.50;;
57319;SDS011;43158;51.026;18.190;2022-11-18T07:03:21;24.30;;;20.20;;
57319;SDS011;43158;51.026;18.190;2022-11-18T07:05:47;26.00;;;22.40;;
57319;SDS011;43158;51.026;18.190;2022-11-18T07:08:12;29.60;;;23.10;;
57319;SDS011;43158;51.026;18.190;2022-11-18T07:10:39;25.00;;;21.00;;
57319;SDS011;43158;51.026;18.190;2022-11-18T07:13:04;25.70;;;22.50;;
57319;SDS011;43158;51.026;18.190;2022-11-18T07:15:32;23.60;;;19.40;;
57319;SDS011;43158;51.026;18.190;2022-11-18T07:17:58;23.60;;;20.50;;
57319;SDS011;43158;51.026;18.190;2022-11-18T07:20:24;26.50;;;20.50;;
57319;SDS011;43158;51.026;18.190;2022-11-18T07:22:53;25.10;;;21.00;;
57319;SDS011;43158;51.026;18.190;2022-11-18T07:25:20;26.00;;;22.30;;
57319;SDS011;43158;51.026;18.190;2022-11-18T07:27:45;24.90;;;21.30;;
57319;SDS011;43158;51.026;18.190;2022-11-18T07:30:12;26.70;;;21.20;;
57319;SDS011;43158;51.026;18.190;2022-11-18T07:32:38;23.50;;;21.00;;
57319;SDS011;43158;51.026;18.190;2022-11-18T07:35:05;21.60;;;19.10;;
57319;SDS011;43158;51.026;18.190;2022-11-18T07:37:31;22.90;;;18.80;;
57319;SDS011;43158;51.026;18.190;2022-11-18T07:39:57;22.70;;;19.40;;
57319;SDS011;43158;51.026;18.190;2022-11-18T07:42:24;21.20;;;19.00;;
57319;SDS011;43158;51.026;18.190;2022-11-18T07:44:50;23.30;;;20.70;;
57319;SDS011;43158;51.026;18.190;2022-11-18T07:47:16;22.00;;;19.60;;
57319;SDS011;43158;51.026;18.190;2022-11-18T07:49:42;21.00;;;18.50;;
57319;SDS011;43158;51.026;18.190;2022-11-18T07:52:08;20.00;;;17.90;;
57319;SDS011;43158;51.026;18.190;2022-11-18T07:54:34;20.40;;;18.30;;
57319;SDS011;43158;51.026;18.190;2022-11-18T07:57:00;21.00;;;18.80;;
57319;SDS011;43158;51.026;18.190;2022-11-18T07:59:26;20.60;;;18.30;;
57319;SDS011;43158;51.026;18.190;2022-11-18T08:01:52;19.80;;;17.80;;
57319;SDS011;43158;51.026;18.190;2022-11-18T08:04:18;20.20;;;18.00;;
57319;SDS011;43158;51.026;18.190;2022-11-18T08:06:44;20.60;;;18.40;;
57319;SDS011;43158;51.026;18.190;2022-11-18T08:09:10;18.90;;;16.90;;
57319;SDS011;43158;51.026;18.190;2022-11-18T08:11:36;18.10;;;16.20;;
57319;SDS011;43158;51.026;18.190;2022-11-18T08:14:02;23.30;;;18.50;;
57319;SDS011;43158;51.026;18.190;2022-11-18T08:16:28;17.80;;;15.90;;
57319;SDS011;43158;51.026;18.190;2022-11-18T08:18:57;19.90;;;17.80;;
57319;SDS011;43158;51.026;18.190;2022-11-18T08:21:28;20.20;;;17.90;;
57319;SDS011;43158;51.026;18.190;2022-11-18T08:23:55;21.50;;;19.20;;
57319;SDS011;43158;51.026;18.190;2022-11-18T08:26:21;22.10;;;19.60;;
57319;SDS011;43158;51.026;18.190;2022-11-18T08:28:48;20.80;;;18.60;;
57319;SDS011;43158;51.026;18.190;2022-11-18T08:31:15;22.70;;;19.50;;
57319;SDS011;43158;51.026;18.190;2022-11-18T08:33:43;20.80;;;18.30;;
57319;SDS011;43158;51.026;18.190;2022-11-18T08:36:11;19.00;;;17.20;;
57319;SDS011;43158;51.026;18.190;2022-11-18T08:38:41;19.80;;;17.90;;
57319;SDS011;43158;51.026;18.190;2022-11-18T08:41:10;20.40;;;18.20;;
57319;SDS011;43158;51.026;18.190;2022-11-18T08:43:40;19.00;;;16.80;;
57319;SDS011;43158;51.026;18.190;2022-11-18T08:46:06;21.20;;;18.50;;
57319;SDS011;43158;51.026;18.190;2022-11-18T08:48:32;17.70;;;15.80;;
57319;SDS011;43158;51.026;18.190;2022-11-18T08:50:58;19.70;;;17.70;;
57319;SDS011;43158;51.026;18.190;2022-11-18T08:53:25;23.60;;;19.10;;
57319;SDS011;43158;51.026;18.190;2022-11-18T08:55:57;32.70;;;23.30;;
57319;SDS011;43158;51.026;18.190;2022-11-18T08:58:24;23.00;;;20.40;;
57319;SDS011;43158;51.026;18.190;2022-11-18T09:00:51;24.40;;;19.60;;
57319;SDS011;43158;51.026;18.190;2022-11-18T09:03:17;20.00;;;18.00;;
57319;SDS011;43158;51.026;18.190;2022-11-18T09:05:44;23.20;;;19.00;;
57319;SDS011;43158;51.026;18.190;2022-11-18T09:08:09;22.30;;;19.90;;
57319;SDS011;43158;51.026;18.190;2022-11-18T09:10:36;23.20;;;20.50;;
57319;SDS011;43158;51.026;18.190;2022-11-18T09:13:02;27.50;;;21.10;;
57319;SDS011;43158;51.026;18.190;2022-11-18T09:15:29;20.20;;;17.40;;
57319;SDS011;43158;51.026;18.190;2022-11-18T09:17:55;20.20;;;18.20;;
57319;SDS011;43158;51.026;18.190;2022-11-18T09:20:22;19.50;;;17.60;;
57319;SDS011;43158;51.026;18.190;2022-11-18T09:22:48;17.90;;;16.00;;
57319;SDS011;43158;51.026;18.190;2022-11-18T09:25:14;19.40;;;17.50;;
57319;SDS011;43158;51.026;18.190;2022-11-18T09:27:41;17.20;;;15.50;;
57319;SDS011;43158;51.026;18.190;2022-11-18T09:30:07;20.90;;;17.90;;
57319;SDS011;43158;51.026;18.190;2022-11-18T09:32:34;21.60;;;18.70;;
57319;SDS011;43158;51.026;18.190;2022-11-18T09:34:59;20.40;;;18.20;;
57319;SDS011;43158;51.026;18.190;2022-11-18T09:37:25;21.80;;;19.60;;
57319;SDS011;43158;51.026;18.190;2022-11-18T09:39:51;22.00;;;18.20;;
57319;SDS011;43158;51.026;18.190;2022-11-18T09:47:44;29.90;;;22.80;;
57319;SDS011;43158;51.026;18.190;2022-11-18T09:50:12;27.30;;;21.70;;
57319;SDS011;43158;51.026;18.190;2022-11-18T09:55:29;23.00;;;19.70;;
57319;SDS011;43158;51.026;18.190;2022-11-18T09:57:55;20.80;;;18.60;;
57319;SDS011;43158;51.026;18.190;2022-11-18T10:00:24;20.50;;;18.40;;
57319;SDS011;43158;51.026;18.190;2022-11-18T10:03:10;23.80;;;20.50;;
57319;SDS011;43158;51.026;18.190;2022-11-18T10:08:32;22.10;;;19.90;;
57319;SDS011;43158;51.026;18.190;2022-11-18T10:13:41;21.00;;;18.00;;
57319;SDS011;43158;51.026;18.190;2022-11-18T10:25:16;23.70;;;21.10;;
57319;SDS011;43158;51.026;18.190;2022-11-18T10:27:43;21.70;;;19.50;;
57319;SDS011;43158;51.026;18.190;2022-11-18T10:30:14;24.50;;;22.10;;
57319;SDS011;43158;51.026;18.190;2022-11-18T10:32:53;26.00;;;22.40;;
57319;SDS011;43158;51.026;18.190;2022-11-18T10:35:31;24.90;;;22.00;;
57319;SDS011;43158;51.026;18.190;2022-11-18T10:37:58;23.30;;;20.90;;
57319;SDS011;43158;51.026;18.190;2022-11-18T10:40:27;22.90;;;20.60;;
57319;SDS011;43158;51.026;18.190;2022-11-18T10:42:54;25.60;;;23.00;;
57319;SDS011;43158;51.026;18.190;2022-11-18T10:48:09;29.00;;;24.60;;
57319;SDS011;43158;51.026;18.190;2022-11-18T10:50:45;32.40;;;24.70;;
57319;SDS011;43158;51.026;18.190;2022-11-18T10:53:30;27.40;;;24.10;;
57319;SDS011;43158;51.026;18.190;2022-11-18T10:56:04;25.50;;;22.20;;
57319;SDS011;43158;51.026;18.190;2022-11-18T10:58:33;32.10;;;25.80;;
57319;SDS011;43158;51.026;18.190;2022-11-18T11:01:24;27.80;;;23.70;;
57319;SDS011;43158;51.026;18.190;2022-11-18T11:03:51;28.40;;;24.90;;
57319;SDS011;43158;51.026;18.190;2022-11-18T11:09:04;30.60;;;25.90;;
57319;SDS011;43158;51.026;18.190;2022-11-18T11:11:34;31.60;;;26.40;;
57319;SDS011;43158;51.026;18.190;2022-11-18T11:16:46;30.60;;;27.20;;
57319;SDS011;43158;51.026;18.190;2022-11-18T11:19:36;30.20;;;25.30;;
57319;SDS011;43158;51.026;18.190;2022-11-18T11:22:11;29.80;;;24.70;;
57319;SDS011;43158;51.026;18.190;2022-11-18T11:24:37;27.70;;;24.80;;
57319;SDS011;43158;51.026;18.190;2022-11-18T11:27:05;30.30;;;25.10;;
57319;SDS011;43158;51.026;18.190;2022-11-18T11:38:27;35.90;;;27.20;;
57319;SDS011;43158;51.026;18.190;2022-11-18T11:43:45;30.60;;;23.90;;
57319;SDS011;43158;51.026;18.190;2022-11-18T11:49:17;34.70;;;28.40;;
57319;SDS011;43158;51.026;18.190;2022-11-18T12:05:38;29.90;;;24.50;;
57319;SDS011;43158;51.026;18.190;2022-11-18T12:08:10;27.20;;;23.60;;
57319;SDS011;43158;51.026;18.190;2022-11-18T12:19:21;29.70;;;19.70;;
57319;SDS011;43158;51.026;18.190;2022-11-18T12:24:23;22.40;;;19.60;;
57319;SDS011;43158;51.026;18.190;2022-11-18T12:26:56;22.40;;;19.20;;
57319;SDS011;43158;51.026;18.190;2022-11-18T12:29:24;22.80;;;20.40;;
57319;SDS011;43158;51.026;18.190;2022-11-18T12:31:52;21.70;;;18.30;;
57319;SDS011;43158;51.026;18.190;2022-11-18T12:42:38;19.30;;;16.60;;
57319;SDS011;43158;51.026;18.190;2022-11-18T12:50:56;33.70;;;24.50;;
57319;SDS011;43158;51.026;18.190;2022-11-18T12:53:28;29.70;;;23.50;;
57319;SDS011;43158;51.026;18.190;2022-11-18T12:56:09;75.00;;;35.50;;
57319;SDS011;43158;51.026;18.190;2022-11-18T12:58:36;31.30;;;24.80;;
57319;SDS011;43158;51.026;18.190;2022-11-18T13:01:04;28.80;;;25.70;;
57319;SDS011;43158;51.026;18.190;2022-11-18T13:03:35;27.60;;;22.70;;
57319;SDS011;43158;51.026;18.190;2022-11-18T13:06:03;24.90;;;22.20;;
57319;SDS011;43158;51.026;18.190;2022-11-18T13:08:31;27.20;;;23.10;;
57319;SDS011;43158;51.026;18.190;2022-11-18T13:13:54;21.50;;;19.20;;
57319;SDS011;43158;51.026;18.190;2022-11-18T13:16:38;18.90;;;16.90;;
57319;SDS011;43158;51.026;18.190;2022-11-18T13:19:23;18.90;;;16.80;;
57319;SDS011;43158;51.026;18.190;2022-11-18T13:21:56;20.50;;;17.40;;
57319;SDS011;43158;51.026;18.190;2022-11-18T13:24:43;12.10;;;10.80;;
57319;SDS011;43158;51.026;18.190;2022-11-18T13:30:01;15.20;;;12.80;;
57319;SDS011;43158;51.026;18.190;2022-11-18T13:32:30;12.90;;;11.60;;
57319;SDS011;43158;51.026;18.190;2022-11-18T13:34:57;14.50;;;13.00;;
57319;SDS011;43158;51.026;18.190;2022-11-18T13:37:48;14.30;;;12.70;;
57319;SDS011;43158;51.026;18.190;2022-11-18T13:40:19;12.00;;;10.80;;
57319;SDS011;43158;51.026;18.190;2022-11-18T13:42:50;12.10;;;10.80;;
57319;SDS011;43158;51.026;18.190;2022-11-18T13:45:16;9.90;;;8.90;;
57319;SDS011;43158;51.026;18.190;2022-11-18T13:47:47;11.30;;;10.10;;
57319;SDS011;43158;51.026;18.190;2022-11-18T13:50:23;12.60;;;10.80;;
57319;SDS011;43158;51.026;18.190;2022-11-18T13:56:15;17.30;;;14.10;;
57319;SDS011;43158;51.026;18.190;2022-11-18T13:58:50;13.40;;;12.00;;
57319;SDS011;43158;51.026;18.190;2022-11-18T14:01:21;17.30;;;13.80;;
57319;SDS011;43158;51.026;18.190;2022-11-18T14:06:31;24.20;;;15.30;;
57319;SDS011;43158;51.026;18.190;2022-11-18T14:09:18;35.40;;;19.10;;
57319;SDS011;43158;51.026;18.190;2022-11-18T14:12:02;26.20;;;16.80;;
57319;SDS011;43158;51.026;18.190;2022-11-18T14:14:32;14.90;;;12.00;;
57319;SDS011;43158;51.026;18.190;2022-11-18T14:17:17;12.20;;;9.80;;
57319;SDS011;43158;51.026;18.190;2022-11-18T14:19:45;13.10;;;9.60;;
57319;SDS011;43158;51.026;18.190;2022-11-18T14:22:20;13.20;;;10.90;;
57319;SDS011;43158;51.026;18.190;2022-11-18T14:25:14;11.40;;;9.20;;
57319;SDS011;43158;51.026;18.190;2022-11-18T14:27:44;9.10;;;8.20;;
57319;SDS011;43158;51.026;18.190;2022-11-18T14:38:50;21.70;;;15.70;;
57319;SDS011;43158;51.026;18.190;2022-11-18T14:41:17;42.10;;;27.00;;
57319;SDS011;43158;51.026;18.190;2022-11-18T14:44:04;13.80;;;11.90;;
57319;SDS011;43158;51.026;18.190;2022-11-18T14:46:31;20.90;;;16.40;;
57319;SDS011;43158;51.026;18.190;2022-11-18T14:49:00;33.80;;;22.10;;
57319;SDS011;43158;51.026;18.190;2022-11-18T14:51:26;41.70;;;27.60;;
57319;SDS011;43158;51.026;18.190;2022-11-18T14:53:52;35.10;;;26.10;;
57319;SDS011;43158;51.026;18.190;2022-11-18T14:56:20;20.20;;;16.10;;
57319;SDS011;43158;51.026;18.190;2022-11-18T14:58:49;22.50;;;19.80;;
57319;SDS011;43158;51.026;18.190;2022-11-18T15:01:15;22.60;;;16.20;;
57319;SDS011;43158;51.026;18.190;2022-11-18T15:03:41;14.70;;;11.20;;
57319;SDS011;43158;51.026;18.190;2022-11-18T15:06:11;22.50;;;16.00;;
57319;SDS011;43158;51.026;18.190;2022-11-18T15:08:41;30.90;;;21.00;;
57319;SDS011;43158;51.026;18.190;2022-11-18T15:11:07;22.20;;;14.00;;
57319;SDS011;43158;51.026;18.190;2022-11-18T15:13:34;24.60;;;16.30;;
57319;SDS011;43158;51.026;18.190;2022-11-18T15:16:10;24.40;;;16.50;;
57319;SDS011;43158;51.026;18.190;2022-11-18T15:18:43;21.10;;;12.40;;
57319;SDS011;43158;51.026;18.190;2022-11-18T15:21:11;14.40;;;10.80;;
57319;SDS011;43158;51.026;18.190;2022-11-18T15:23:37;16.10;;;11.70;;
57319;SDS011;43158;51.026;18.190;2022-11-18T15:26:37;25.50;;;18.70;;
57319;SDS011;43158;51.026;18.190;2022-11-18T15:29:00;21.30;;;16.40;;
57319;SDS011;43158;51.026;18.190;2022-11-18T15:31:26;27.20;;;17.00;;
57319;SDS011;43158;51.026;18.190;2022-11-18T15:33:52;20.00;;;14.90;;
57319;SDS011;43158;51.026;18.190;2022-11-18T15:36:20;14.30;;;10.90;;
57319;SDS011;43158;51.026;18.190;2022-11-18T15:38:48;16.00;;;11.90;;
57319;SDS011;43158;51.026;18.190;2022-11-18T15:41:15;16.00;;;13.00;;
57319;SDS011;43158;51.026;18.190;2022-11-18T15:43:43;13.90;;;10.70;;
57319;SDS011;43158;51.026;18.190;2022-11-18T15:46:10;15.20;;;10.90;;
57319;SDS011;43158;51.026;18.190;2022-11-18T15:48:36;17.00;;;12.20;;
57319;SDS011;43158;51.026;18.190;2022-11-18T15:51:02;20.30;;;15.90;;
57319;SDS011;43158;51.026;18.190;2022-11-18T15:53:28;36.00;;;32.20;;
57319;SDS011;43158;51.026;18.190;2022-11-18T15:58:58;28.40;;;23.70;;
57319;SDS011;43158;51.026;18.190;2022-11-18T16:01:33;29.50;;;22.40;;
57319;SDS011;43158;51.026;18.190;2022-11-18T16:04:01;63.80;;;46.10;;
57319;SDS011;43158;51.026;18.190;2022-11-18T16:06:27;22.60;;;16.60;;
57319;SDS011;43158;51.026;18.190;2022-11-18T16:08:54;23.00;;;14.00;;
57319;SDS011;43158;51.026;18.190;2022-11-18T16:11:20;22.40;;;15.60;;
57319;SDS011;43158;51.026;18.190;2022-11-18T16:14:05;29.90;;;22.90;;
57319;SDS011;43158;51.026;18.190;2022-11-18T16:16:32;23.90;;;19.80;;
57319;SDS011;43158;51.026;18.190;2022-11-18T16:19:00;21.80;;;17.10;;
57319;SDS011;43158;51.026;18.190;2022-11-18T16:21:28;34.90;;;23.00;;
57319;SDS011;43158;51.026;18.190;2022-11-18T16:23:57;34.90;;;24.80;;
57319;SDS011;43158;51.026;18.190;2022-11-18T16:26:24;38.50;;;29.40;;
57319;SDS011;43158;51.026;18.190;2022-11-18T16:28:50;47.40;;;34.50;;
57319;SDS011;43158;51.026;18.190;2022-11-18T16:31:17;53.30;;;36.30;;
57319;SDS011;43158;51.026;18.190;2022-11-18T16:34:09;50.80;;;33.40;;